Time;durP1;ratioP1;P1;durP2;ratioP2;P2;SDS_P1;SDS_P2;PMS_P1;PMS_P2;Temp;Humidity;BMP_temperature;BMP_pressure;BME280_temperature;BME280_humidity;BME280_pressure;Samples;Min_cycle;Max_cycle;Signal;HPM_P1;HPM_P2
2023/06/15 00:00:22;;;;;;;9.20;6.70;;;13.90;54.40;;;;;;5012957;28;20426;-57
2023/06/15 00:02:48;;;;;;;9.40;7.00;;;13.90;54.60;;;;;;5018797;28;20564;-57
2023/06/15 00:05:13;;;;;;;8.77;6.70;;;13.80;54.70;;;;;;5022123;28;20204;-59
2023/06/15 00:07:39;;;;;;;12.00;7.40;;;13.70;54.70;;;;;;5022175;28;20196;-57
2023/06/15 00:10:06;;;;;;;13.33;7.13;;;13.70;54.80;;;;;;5018959;28;20196;-57
2023/06/15 00:12:32;;;;;;;10.27;7.30;;;13.60;54.90;;;;;;5023540;28;20485;-56
2023/06/15 00:14:58;;;;;;;9.03;6.90;;;13.60;55.10;;;;;;5019538;28;20993;-56
2023/06/15 00:17:24;;;;;;;9.60;6.73;;;13.60;55.20;;;;;;5023388;28;20430;-57
2023/06/15 00:19:50;;;;;;;9.70;6.33;;;13.60;55.30;;;;;;5023537;28;20181;-57
2023/06/15 00:22:16;;;;;;;9.93;7.20;;;13.60;55.40;;;;;;5022418;28;20517;-57
2023/06/15 00:24:42;;;;;;;10.20;7.53;;;13.60;55.30;;;;;;5019823;28;20208;-57
2023/06/15 00:27:09;;;;;;;12.77;7.00;;;13.60;55.30;;;;;;5019485;28;20191;-56
2023/06/15 00:29:35;;;;;;;12.43;7.03;;;13.60;55.30;;;;;;5022935;28;20430;-56
2023/06/15 00:32:00;;;;;;;7.70;6.70;;;13.60;55.50;;;;;;5018865;28;20466;-57
2023/06/15 00:34:26;;;;;;;11.03;7.60;;;13.60;55.50;;;;;;5020176;28;20222;-58
2023/06/15 00:36:52;;;;;;;8.77;6.63;;;13.60;55.50;;;;;;5018727;28;20716;-56
2023/06/15 00:39:18;;;;;;;9.40;7.30;;;13.70;55.60;;;;;;5017426;28;20190;-56
2023/06/15 00:41:44;;;;;;;12.37;7.10;;;13.70;55.60;;;;;;5025300;28;20190;-57
2023/06/15 00:44:11;;;;;;;7.77;6.20;;;13.70;55.70;;;;;;5020936;28;20455;-56
2023/06/15 00:46:38;;;;;;;7.60;6.80;;;13.80;55.80;;;;;;5017557;28;20524;-57
2023/06/15 00:49:05;;;;;;;8.50;7.07;;;13.80;55.70;;;;;;5020395;28;20438;-57
2023/06/15 00:51:33;;;;;;;11.90;7.47;;;13.80;55.70;;;;;;5019886;28;20990;-56
2023/06/15 00:53:59;;;;;;;11.60;7.03;;;13.80;55.60;;;;;;5023047;28;20450;-56
2023/06/15 00:56:29;;;;;;;17.43;8.07;;;13.70;55.70;;;;;;5017103;28;20422;-57
2023/06/15 00:58:55;;;;;;;14.03;7.60;;;13.60;56.30;;;;;;5018743;28;20532;-58
2023/06/15 01:01:20;;;;;;;11.20;8.57;;;13.50;56.30;;;;;;5020175;28;20426;-57
2023/06/15 01:03:46;;;;;;;12.20;8.07;;;13.50;56.60;;;;;;5022851;28;20585;-56
2023/06/15 01:06:16;;;;;;;11.33;7.70;;;13.40;56.70;;;;;;5022136;28;20190;-55
2023/06/15 01:08:47;;;;;;;10.23;8.03;;;13.40;56.90;;;;;;5023295;28;20187;-57
2023/06/15 01:11:14;;;;;;;11.20;7.50;;;13.30;56.90;;;;;;5021933;28;20454;-56
2023/06/15 01:13:42;;;;;;;14.00;8.80;;;13.30;57.00;;;;;;5015440;28;20441;-57
2023/06/15 01:16:14;;;;;;;11.93;8.20;;;13.20;57.10;;;;;;5022229;28;20419;-57
2023/06/15 01:18:46;;;;;;;11.93;8.00;;;13.20;57.20;;;;;;5020438;28;20420;-57
2023/06/15 01:21:13;;;;;;;10.50;8.60;;;13.20;57.30;;;;;;5025039;28;20431;-56
2023/06/15 01:23:41;;;;;;;11.40;7.80;;;13.20;57.50;;;;;;5022978;28;20438;-57
2023/06/15 01:26:10;;;;;;;10.20;7.90;;;13.10;57.50;;;;;;5014243;28;20434;-56
2023/06/15 01:28:41;;;;;;;10.93;8.00;;;13.10;57.60;;;;;;5018975;28;20484;-56
2023/06/15 01:31:09;;;;;;;8.77;7.80;;;13.00;57.50;;;;;;5021713;28;20498;-57
2023/06/15 01:33:52;;;;;;;9.90;7.27;;;13.00;57.60;;;;;;5023790;28;20524;-55
2023/06/15 01:36:19;;;;;;;9.40;7.87;;;13.00;57.70;;;;;;5021951;28;20904;-57
2023/06/15 01:38:53;;;;;;;10.83;7.03;;;12.90;57.70;;;;;;5018829;28;20453;-56
2023/06/15 01:41:20;;;;;;;11.13;7.77;;;12.90;57.70;;;;;;5019401;28;21076;-56
2023/06/15 01:43:46;;;;;;;10.10;7.27;;;12.90;57.80;;;;;;5020389;28;20443;-56
2023/06/15 01:46:12;;;;;;;7.07;6.40;;;12.80;58.30;;;;;;5022114;28;20442;-57
2023/06/15 01:48:38;;;;;;;10.57;7.43;;;12.80;58.00;;;;;;5019045;28;20671;-56
2023/06/15 01:51:04;;;;;;;10.47;7.53;;;12.80;58.00;;;;;;5019756;28;20462;-58
2023/06/15 01:53:33;;;;;;;11.27;7.07;;;12.70;58.00;;;;;;5021066;28;20175;-56
2023/06/15 01:55:59;;;;;;;7.93;7.07;;;12.70;58.10;;;;;;5024480;28;20183;-55
2023/06/15 01:58:26;;;;;;;8.87;6.77;;;12.70;58.20;;;;;;5029865;28;20976;-57
2023/06/15 02:00:51;;;;;;;11.30;7.07;;;12.60;58.30;;;;;;5025498;28;20438;-55
2023/06/15 02:03:17;;;;;;;9.43;7.50;;;12.60;58.30;;;;;;5016993;28;20817;-56
2023/06/15 02:05:43;;;;;;;11.13;8.40;;;12.60;58.30;;;;;;5022080;28;20637;-57
2023/06/15 02:08:10;;;;;;;9.43;6.97;;;12.60;58.40;;;;;;5024624;28;20737;-58
2023/06/15 02:10:36;;;;;;;10.37;7.80;;;12.60;58.50;;;;;;5021340;28;20235;-56
2023/06/15 02:13:02;;;;;;;9.63;7.90;;;12.50;58.60;;;;;;5024553;28;20434;-56
2023/06/15 02:15:28;;;;;;;8.43;7.10;;;12.50;58.70;;;;;;5026509;28;20199;-57
2023/06/15 02:17:58;;;;;;;10.90;7.47;;;12.40;58.70;;;;;;5014464;28;20267;-57
2023/06/15 02:20:25;;;;;;;11.60;7.70;;;12.40;59.00;;;;;;5021746;28;20458;-56
2023/06/15 02:22:52;;;;;;;8.83;7.50;;;12.40;59.10;;;;;;5024864;28;20430;-57
2023/06/15 02:25:18;;;;;;;14.50;7.37;;;12.40;59.10;;;;;;5026393;28;20454;-55
2023/06/15 02:27:44;;;;;;;9.17;7.63;;;12.30;59.20;;;;;;5025717;28;20431;-56
2023/06/15 02:30:11;;;;;;;11.50;7.90;;;12.30;59.20;;;;;;5021993;28;20465;-58
2023/06/15 02:32:39;;;;;;;10.10;8.10;;;12.30;59.30;;;;;;5022568;28;20186;-57
2023/06/15 02:35:12;;;;;;;8.40;7.50;;;12.30;59.50;;;;;;5024169;28;20454;-58
2023/06/15 02:37:39;;;;;;;9.10;7.87;;;12.20;59.70;;;;;;5022420;28;20446;-56
2023/06/15 02:40:06;;;;;;;10.73;7.70;;;12.20;59.80;;;;;;5022550;28;20427;-56
2023/06/15 02:42:31;;;;;;;11.40;8.63;;;12.10;60.00;;;;;;5015070;28;20426;-57
2023/06/15 02:44:57;;;;;;;9.10;7.33;;;12.10;60.20;;;;;;5022843;28;20446;-58
2023/06/15 02:47:23;;;;;;;9.83;7.27;;;12.10;60.60;;;;;;5018935;28;20701;-58
2023/06/15 02:49:49;;;;;;;17.73;8.27;;;12.10;60.70;;;;;;5019049;28;20241;-58
2023/06/15 02:52:15;;;;;;;7.87;7.07;;;12.10;60.80;;;;;;5028171;28;20196;-58
2023/06/15 02:54:40;;;;;;;17.37;8.17;;;12.10;61.50;;;;;;5021711;28;20514;-58
2023/06/15 02:57:06;;;;;;;9.67;7.30;;;12.10;61.20;;;;;;5020998;28;20266;-57
2023/06/15 02:59:34;;;;;;;11.73;7.80;;;12.10;61.40;;;;;;5022069;28;20176;-58
2023/06/15 03:02:00;;;;;;;8.50;7.60;;;12.10;62.20;;;;;;5025373;28;21195;-57
2023/06/15 03:04:27;;;;;;;10.10;7.53;;;12.10;61.50;;;;;;5022669;28;20465;-57
2023/06/15 03:06:56;;;;;;;8.57;7.30;;;12.00;61.50;;;;;;5025581;28;20426;-58
2023/06/15 03:09:22;;;;;;;12.03;7.70;;;12.00;61.60;;;;;;5013370;28;20418;-56
2023/06/15 03:11:48;;;;;;;14.20;7.60;;;11.90;61.70;;;;;;5021833;28;20859;-56
2023/06/15 03:14:14;;;;;;;10.30;7.43;;;11.90;62.00;;;;;;5027323;28;20683;-54
2023/06/15 03:16:41;;;;;;;13.10;8.03;;;11.90;62.30;;;;;;5020745;28;20188;-56
2023/06/15 03:19:07;;;;;;;11.50;8.03;;;11.80;62.40;;;;;;5018902;28;20431;-57
2023/06/15 03:21:32;;;;;;;13.50;7.83;;;11.80;62.70;;;;;;5022545;28;20475;-56
2023/06/15 03:23:58;;;;;;;10.80;8.17;;;11.80;63.00;;;;;;5020225;28;20442;-57
2023/06/15 03:26:26;;;;;;;10.60;8.33;;;11.70;63.30;;;;;;5017322;28;20233;-56
2023/06/15 03:28:53;;;;;;;11.13;8.27;;;11.70;63.40;;;;;;5018004;28;20188;-57
2023/06/15 03:31:19;;;;;;;13.90;8.47;;;11.70;63.60;;;;;;5023329;28;20593;-58
2023/06/15 03:33:45;;;;;;;19.10;8.90;;;11.70;63.90;;;;;;5024119;28;20991;-57
2023/06/15 03:36:14;;;;;;;7.80;7.00;;;11.70;64.20;;;;;;5021907;28;20438;-57
2023/06/15 03:38:43;;;;;;;9.80;8.40;;;11.60;64.30;;;;;;5024167;28;20450;-59
2023/06/15 03:41:09;;;;;;;8.90;7.63;;;11.60;64.50;;;;;;5020752;28;20993;-58
2023/06/15 03:43:38;;;;;;;8.67;7.60;;;11.60;64.70;;;;;;5025279;28;20541;-57
2023/06/15 03:46:05;;;;;;;13.13;7.57;;;11.60;64.90;;;;;;5024646;28;21020;-57
2023/06/15 03:48:31;;;;;;;11.53;8.00;;;11.60;65.10;;;;;;5020486;28;20936;-57
2023/06/15 03:50:56;;;;;;;10.10;8.10;;;11.70;65.00;;;;;;5020885;28;20463;-57
2023/06/15 03:53:24;;;;;;;10.50;8.13;;;11.70;65.10;;;;;;5014285;28;20219;-56
2023/06/15 03:55:50;;;;;;;11.87;9.07;;;11.70;65.00;;;;;;5019234;28;20200;-56
2023/06/15 03:58:17;;;;;;;13.67;9.00;;;11.70;65.50;;;;;;5014203;28;20528;-56
2023/06/15 04:00:43;;;;;;;10.83;8.10;;;11.70;65.60;;;;;;5025231;28;20442;-58
2023/06/15 04:03:09;;;;;;;14.47;8.40;;;11.70;65.30;;;;;;5020677;28;20964;-58
2023/06/15 04:05:34;;;;;;;12.77;8.60;;;11.70;65.80;;;;;;5022053;28;20567;-57
2023/06/15 04:08:01;;;;;;;11.50;8.43;;;11.70;65.30;;;;;;5022663;28;20195;-56
2023/06/15 04:10:27;;;;;;;15.00;8.67;;;11.70;65.70;;;;;;5018151;28;20257;-58
2023/06/15 04:12:52;;;;;;;13.83;8.80;;;11.70;65.90;;;;;;5022286;28;20959;-58
2023/06/15 04:15:18;;;;;;;14.87;8.57;;;11.70;66.10;;;;;;5019955;28;20199;-57
2023/06/15 04:17:44;;;;;;;13.57;8.63;;;11.70;65.60;;;;;;5023266;28;20652;-57
2023/06/15 04:20:10;;;;;;;12.40;8.30;;;11.70;65.90;;;;;;5006897;28;20693;-58
2023/06/15 04:22:36;;;;;;;13.07;8.47;;;11.70;66.20;;;;;;5019908;28;20275;-55
2023/06/15 04:25:02;;;;;;;14.57;9.40;;;11.70;66.50;;;;;;5012776;28;20537;-49
2023/06/15 04:27:28;;;;;;;10.97;8.00;;;11.70;66.40;;;;;;5013420;28;20188;-58
2023/06/15 04:29:54;;;;;;;11.87;8.60;;;11.70;67.00;;;;;;5011462;28;20490;-57
2023/06/15 04:32:20;;;;;;;12.37;8.20;;;11.80;66.90;;;;;;5019238;28;20202;-58
2023/06/15 04:34:45;;;;;;;15.83;8.63;;;11.80;66.50;;;;;;5013653;28;20215;-54
2023/06/15 04:37:13;;;;;;;12.30;8.30;;;11.80;67.10;;;;;;5012234;28;20184;-57
2023/06/15 04:39:38;;;;;;;10.27;7.87;;;11.90;66.80;;;;;;5012090;28;20646;-57
2023/06/15 04:42:04;;;;;;;12.13;8.83;;;11.90;66.80;;;;;;5013078;28;20447;-57
2023/06/15 04:44:30;;;;;;;16.27;9.23;;;11.90;66.80;;;;;;5015479;28;20872;-58
2023/06/15 04:46:55;;;;;;;15.03;9.53;;;12.00;68.00;;;;;;5018331;28;20434;-56
2023/06/15 04:49:21;;;;;;;16.63;9.07;;;12.00;67.00;;;;;;5018487;28;20215;-59
2023/06/15 04:51:48;;;;;;;18.40;8.40;;;12.10;66.80;;;;;;5015161;28;20217;-57
2023/06/15 04:54:14;;;;;;;13.53;8.80;;;12.10;66.70;;;;;;5008649;28;20241;-57
2023/06/15 04:56:39;;;;;;;13.60;8.77;;;12.10;67.10;;;;;;5019234;28;20434;-58
2023/06/15 04:59:05;;;;;;;11.53;8.93;;;12.10;67.20;;;;;;5021234;28;20180;-57
2023/06/15 05:01:31;;;;;;;9.90;8.47;;;12.20;67.20;;;;;;5020566;28;20688;-57
2023/06/15 05:03:58;;;;;;;15.00;8.57;;;12.20;68.30;;;;;;5019803;28;20195;-56
2023/06/15 05:06:24;;;;;;;10.77;8.37;;;12.30;68.80;;;;;;5020412;28;20180;-55
2023/06/15 05:08:51;;;;;;;14.60;9.10;;;12.40;68.20;;;;;;5012094;28;20514;-59
2023/06/15 05:11:16;;;;;;;12.90;9.10;;;12.40;67.40;;;;;;5018566;28;20470;-56
2023/06/15 05:13:42;;;;;;;12.90;9.17;;;12.50;67.90;;;;;;5017559;28;20461;-58
2023/06/15 05:16:08;;;;;;;11.03;8.43;;;12.60;67.00;;;;;;5011363;28;20187;-59
2023/06/15 05:18:34;;;;;;;10.30;8.47;;;12.60;66.40;;;;;;5018932;28;20641;-57
2023/06/15 05:20:59;;;;;;;12.63;9.43;;;12.80;65.70;;;;;;5019895;28;20198;-57
2023/06/15 05:23:26;;;;;;;10.90;8.80;;;12.80;64.80;;;;;;5015300;28;20563;-58
2023/06/15 05:25:52;;;;;;;15.43;9.33;;;12.90;64.50;;;;;;5014374;28;20211;-59
2023/06/15 05:28:18;;;;;;;10.33;8.00;;;13.00;64.60;;;;;;5014472;28;20441;-57
2023/06/15 05:30:44;;;;;;;12.27;8.87;;;13.10;64.50;;;;;;5022205;28;20212;-59
2023/06/15 05:33:10;;;;;;;14.30;9.63;;;13.20;64.70;;;;;;5019948;28;20431;-59
2023/06/15 05:35:36;;;;;;;9.23;8.13;;;13.40;64.80;;;;;;5020309;28;21175;-57
2023/06/15 05:38:01;;;;;;;13.27;8.53;;;13.50;63.90;;;;;;5025875;28;20200;-56
2023/06/15 05:40:27;;;;;;;11.80;8.77;;;13.70;63.20;;;;;;5021304;28;20608;-57
2023/06/15 05:42:54;;;;;;;19.93;10.60;;;13.80;63.10;;;;;;5021500;28;20231;-57
2023/06/15 05:45:20;;;;;;;20.00;10.23;;;13.90;63.20;;;;;;5018915;28;20196;-56
2023/06/15 05:47:45;;;;;;;16.53;10.93;;;14.00;62.90;;;;;;5020123;28;20436;-57
2023/06/15 05:50:11;;;;;;;16.53;10.70;;;14.10;62.20;;;;;;5023065;28;20303;-58
2023/06/15 05:52:37;;;;;;;20.03;9.43;;;14.20;62.00;;;;;;5022613;28;20561;-57
2023/06/15 05:55:02;;;;;;;12.00;9.73;;;14.30;62.60;;;;;;5020190;28;20254;-56
2023/06/15 05:57:28;;;;;;;19.83;10.80;;;14.50;62.40;;;;;;5015643;28;20183;-56
2023/06/15 05:59:54;;;;;;;18.50;10.70;;;14.60;62.20;;;;;;5017026;28;20184;-58
2023/06/15 06:02:19;;;;;;;13.63;10.03;;;14.70;62.00;;;;;;5021215;28;20511;-58
2023/06/15 06:04:45;;;;;;;10.97;8.57;;;14.80;60.50;;;;;;5020941;28;20204;-55
2023/06/15 06:07:11;;;;;;;11.13;8.50;;;14.80;60.70;;;;;;5021409;28;20179;-58
2023/06/15 06:09:37;;;;;;;8.57;7.67;;;14.90;60.60;;;;;;5024434;28;20183;-58
2023/06/15 06:12:03;;;;;;;10.90;9.30;;;15.00;60.30;;;;;;5024006;28;20998;-59
2023/06/15 06:14:29;;;;;;;10.20;7.70;;;15.10;60.00;;;;;;5018781;28;20458;-57
2023/06/15 06:16:55;;;;;;;9.43;7.17;;;15.30;59.80;;;;;;5018460;28;20183;-59
2023/06/15 06:19:25;;;;;;;12.10;7.33;;;15.40;59.60;;;;;;5018414;28;20269;-56
2023/06/15 06:21:51;;;;;;;7.90;7.10;;;15.50;59.10;;;;;;5022904;28;20500;-57
2023/06/15 06:24:17;;;;;;;14.00;8.50;;;15.60;59.10;;;;;;5021594;28;20466;-57
2023/06/15 06:26:43;;;;;;;12.57;7.40;;;15.70;59.30;;;;;;5016893;28;20995;-59
2023/06/15 06:29:09;;;;;;;12.73;7.33;;;15.80;59.20;;;;;;5010996;28;20442;-58
2023/06/15 06:31:34;;;;;;;9.80;8.00;;;15.90;58.70;;;;;;5024119;28;20211;-57
2023/06/15 06:34:00;;;;;;;10.97;8.20;;;16.10;58.10;;;;;;5021206;28;20610;-57
2023/06/15 06:36:26;;;;;;;8.70;7.10;;;16.20;58.00;;;;;;5022450;28;20203;-57
2023/06/15 06:38:52;;;;;;;13.00;8.57;;;16.30;57.90;;;;;;5020727;28;20189;-57
2023/06/15 06:41:20;;;;;;;13.70;9.50;;;16.50;57.30;;;;;;5024456;28;20540;-57
2023/06/15 06:43:45;;;;;;;15.70;8.93;;;16.60;56.70;;;;;;5019277;28;20987;-58
2023/06/15 06:46:13;;;;;;;14.47;10.10;;;16.70;56.30;;;;;;5024674;28;20426;-59
2023/06/15 06:48:38;;;;;;;15.70;8.20;;;16.80;56.00;;;;;;5026254;28;20188;-56
2023/06/15 06:51:04;;;;;;;11.90;8.00;;;17.00;56.10;;;;;;5022358;28;20656;-61
2023/06/15 06:53:30;;;;;;;12.37;7.83;;;17.10;55.80;;;;;;5020861;28;20172;-55
2023/06/15 06:55:55;;;;;;;15.23;7.80;;;17.30;55.50;;;;;;5020170;28;20245;-58
2023/06/15 06:58:21;;;;;;;10.67;7.20;;;17.40;55.30;;;;;;5024044;28;20214;-58
2023/06/15 07:00:46;;;;;;;12.17;7.43;;;17.60;55.20;;;;;;5022137;28;20563;-56
2023/06/15 07:03:12;;;;;;;9.63;6.20;;;17.70;54.60;;;;;;5025260;28;20191;-58
2023/06/15 07:05:38;;;;;;;9.40;6.97;;;17.80;54.50;;;;;;5024514;28;20209;-59
2023/06/15 07:08:04;;;;;;;9.00;6.40;;;17.90;53.90;;;;;;5022944;28;20685;-56
2023/06/15 07:10:30;;;;;;;17.07;6.67;;;18.00;53.80;;;;;;5024316;28;20660;-58
2023/06/15 07:12:56;;;;;;;8.83;7.20;;;18.10;53.70;;;;;;5027047;28;20431;-59
2023/06/15 07:15:22;;;;;;;13.03;6.23;;;18.20;53.20;;;;;;5021870;28;20595;-58
2023/06/15 07:17:49;;;;;;;8.53;5.63;;;18.30;52.90;;;;;;5023441;28;20434;-56
2023/06/15 07:20:14;;;;;;;17.50;7.40;;;18.40;53.00;;;;;;5015945;28;20445;-58
2023/06/15 07:22:41;;;;;;;11.43;6.40;;;18.60;52.50;;;;;;5015689;28;20435;-55
2023/06/15 07:25:07;;;;;;;9.40;6.17;;;18.80;52.00;;;;;;5018928;28;20694;-58
2023/06/15 07:27:32;;;;;;;9.87;5.93;;;18.90;51.70;;;;;;5014241;28;20452;-56
2023/06/15 07:29:58;;;;;;;7.03;5.87;;;19.10;51.30;;;;;;5020988;28;20190;-57
2023/06/15 07:32:23;;;;;;;7.03;6.10;;;19.30;50.50;;;;;;5018992;28;20210;-57
2023/06/15 07:34:49;;;;;;;11.60;5.17;;;19.50;50.50;;;;;;5023332;28;20198;-57
2023/06/15 07:37:15;;;;;;;7.23;5.77;;;19.60;49.70;;;;;;5019960;28;20842;-58
2023/06/15 07:39:40;;;;;;;7.83;6.13;;;19.80;49.30;;;;;;5009760;28;20222;-59
2023/06/15 07:42:06;;;;;;;6.37;5.13;;;19.90;49.30;;;;;;5018707;28;20211;-56
2023/06/15 07:44:32;;;;;;;9.50;5.90;;;20.10;48.70;;;;;;5023760;28;20199;-57
2023/06/15 07:46:58;;;;;;;8.13;5.83;;;20.20;48.10;;;;;;5019391;28;20541;-59
2023/06/15 07:49:23;;;;;;;7.13;5.50;;;20.20;48.00;;;;;;5017162;28;20578;-58
2023/06/15 07:51:49;;;;;;;5.40;4.90;;;20.20;48.10;;;;;;5017981;28;20291;-58
2023/06/15 07:54:14;;;;;;;7.67;5.83;;;20.30;47.90;;;;;;5016821;28;20189;-58
2023/06/15 07:56:40;;;;;;;11.73;5.70;;;20.40;47.30;;;;;;5025561;28;20211;-58
2023/06/15 07:59:06;;;;;;;7.13;4.47;;;20.60;45.90;;;;;;5026581;28;20710;-57
2023/06/15 08:01:31;;;;;;;7.63;4.73;;;20.60;44.30;;;;;;5018822;28;20188;-56
2023/06/15 08:03:57;;;;;;;5.57;4.67;;;20.60;43.30;;;;;;5023793;28;20272;-58
2023/06/15 08:06:22;;;;;;;8.93;4.80;;;20.70;43.90;;;;;;5024038;28;20183;-58
2023/06/15 08:08:49;;;;;;;8.53;5.67;;;20.90;43.30;;;;;;5014948;28;20183;-56
2023/06/15 08:11:16;;;;;;;5.13;4.60;;;21.00;43.10;;;;;;5023450;28;20210;-57
2023/06/15 08:13:42;;;;;;;6.77;4.83;;;21.00;42.70;;;;;;5019098;28;20954;-58
2023/06/15 08:16:08;;;;;;;6.27;5.00;;;21.10;42.00;;;;;;5017443;28;20436;-59
2023/06/15 08:18:34;;;;;;;8.70;5.30;;;21.20;41.90;;;;;;5019673;28;20173;-57
2023/06/15 08:21:00;;;;;;;8.37;4.70;;;21.30;41.80;;;;;;5011233;28;20276;-59
2023/06/15 08:23:25;;;;;;;5.40;4.70;;;21.50;41.50;;;;;;5019954;28;20184;-58
2023/06/15 08:25:52;;;;;;;9.93;4.63;;;21.60;41.30;;;;;;5018686;28;20842;-58
2023/06/15 08:28:19;;;;;;;7.80;3.80;;;21.80;38.90;;;;;;5020062;28;20179;-62
2023/06/15 08:30:44;;;;;;;6.20;4.20;;;21.90;35.90;;;;;;5017530;28;20470;-59
2023/06/15 08:33:10;;;;;;;7.43;4.00;;;22.00;35.20;;;;;;5026125;28;20456;-58
2023/06/15 08:35:36;;;;;;;5.87;4.30;;;22.10;35.70;;;;;;5015278;28;20188;-58
2023/06/15 08:38:02;;;;;;;9.87;4.50;;;22.20;35.70;;;;;;5017328;28;20184;-58
2023/06/15 08:40:28;;;;;;;5.90;4.30;;;22.30;35.70;;;;;;5025515;28;20199;-58
2023/06/15 08:42:55;;;;;;;5.87;4.70;;;22.50;35.80;;;;;;5025331;28;20517;-57
2023/06/15 08:45:21;;;;;;;6.43;4.83;;;22.60;36.20;;;;;;5015491;28;20207;-58
2023/06/15 08:47:47;;;;;;;6.97;4.30;;;22.60;35.70;;;;;;5023516;28;20465;-58
2023/06/15 08:50:12;;;;;;;8.07;4.80;;;22.70;36.50;;;;;;5017705;28;20498;-58
2023/06/15 08:52:42;;;;;;;6.07;4.20;;;22.80;36.70;;;;;;5017015;28;20172;-58
2023/06/15 08:55:09;;;;;;;7.63;4.50;;;22.90;36.00;;;;;;5023611;28;20210;-60
2023/06/15 08:57:35;;;;;;;4.63;4.10;;;22.90;35.90;;;;;;5023448;28;20482;-59
2023/06/15 09:00:08;;;;;;;6.87;5.23;;;22.80;36.50;;;;;;5003931;28;20529;-57
2023/06/15 09:02:40;;;;;;;5.73;4.60;;;22.80;36.50;;;;;;5019895;28;20504;-57
2023/06/15 09:05:06;;;;;;;6.20;4.20;;;22.90;36.30;;;;;;5023662;28;20438;-59
2023/06/15 09:07:32;;;;;;;7.00;4.83;;;22.90;36.10;;;;;;5026003;28;20414;-56
2023/06/15 09:10:17;;;;;;;9.30;4.53;;;23.00;36.70;;;;;;5020244;28;20430;-57
2023/06/15 09:12:47;;;;;;;9.57;5.00;;;23.20;36.80;;;;;;5017599;28;20168;-59
2023/06/15 09:15:24;;;;;;;7.97;4.47;;;23.40;37.90;;;;;;5023001;28;20470;-58
2023/06/15 09:17:56;;;;;;;7.20;4.47;;;23.70;37.30;;;;;;5018572;28;20430;-59
2023/06/15 09:20:27;;;;;;;7.13;4.33;;;23.80;36.50;;;;;;5013586;28;20438;-53
2023/06/15 09:23:01;;;;;;;10.17;5.10;;;24.00;36.10;;;;;;5022666;28;20440;-52
2023/06/15 09:25:28;;;;;;;9.33;4.80;;;24.10;36.10;;;;;;5024607;28;21008;-53
2023/06/15 09:27:59;;;;;;;7.33;4.30;;;24.20;35.80;;;;;;5019901;28;20422;-55
2023/06/15 09:30:43;;;;;;;6.23;4.70;;;24.30;35.30;;;;;;5016963;28;20461;-52
2023/06/15 09:33:14;;;;;;;13.10;5.07;;;24.30;34.90;;;;;;5017377;28;20791;-52
2023/06/15 09:36:03;;;;;;;15.87;5.00;;;24.20;35.20;;;;;;5018460;28;20899;-53
2023/06/15 09:38:40;;;;;;;5.50;4.83;;;24.10;35.30;;;;;;5025010;28;20438;-51
2023/06/15 09:41:07;;;;;;;7.40;4.70;;;23.90;35.20;;;;;;5023200;28;20433;-51
2023/06/15 09:43:39;;;;;;;5.30;4.70;;;23.80;35.00;;;;;;5019133;28;20466;-51
2023/06/15 09:46:12;;;;;;;11.43;4.60;;;23.80;34.90;;;;;;5020232;28;20518;-53
2023/06/15 09:48:38;;;;;;;4.67;4.20;;;23.80;35.10;;;;;;5013807;28;20434;-51
2023/06/15 09:51:04;;;;;;;6.00;4.30;;;23.90;35.20;;;;;;5019150;28;21394;-59
2023/06/15 09:53:31;;;;;;;10.40;4.77;;;24.00;34.00;;;;;;5017169;28;20518;-58
2023/06/15 09:55:58;;;;;;;5.33;4.80;;;24.20;33.80;;;;;;5014919;28;20345;-58
2023/06/15 09:58:24;;;;;;;4.90;4.40;;;24.30;34.40;;;;;;5020116;28;20431;-58
2023/06/15 10:00:52;;;;;;;6.63;4.83;;;24.50;35.00;;;;;;5021521;28;20425;-58
2023/06/15 10:03:22;;;;;;;6.40;4.60;;;24.70;34.70;;;;;;5018781;28;20175;-58
2023/06/15 10:05:54;;;;;;;6.30;4.77;;;24.90;34.70;;;;;;5021855;28;20446;-58
2023/06/15 10:08:24;;;;;;;5.93;3.80;;;24.80;33.90;;;;;;5015659;28;20422;-59
2023/06/15 10:10:51;;;;;;;6.43;4.80;;;24.60;34.10;;;;;;5019046;28;20457;-58
2023/06/15 10:13:30;;;;;;;6.63;4.63;;;24.30;34.00;;;;;;5017911;28;20567;-57
2023/06/15 10:15:58;;;;;;;7.17;4.47;;;24.00;34.40;;;;;;5013755;28;20975;-58
2023/06/15 10:18:27;;;;;;;6.67;4.10;;;23.70;34.60;;;;;;5019853;28;20423;-58
2023/06/15 10:20:53;;;;;;;9.10;4.37;;;23.40;35.30;;;;;;5021794;28;20426;-58
2023/06/15 10:23:25;;;;;;;6.80;4.90;;;23.20;35.30;;;;;;5025506;28;20450;-55
2023/06/15 10:25:55;;;;;;;6.13;4.03;;;23.00;35.40;;;;;;5016832;28;20461;-58
2023/06/15 10:28:23;;;;;;;8.13;4.87;;;22.90;35.60;;;;;;5025314;28;20430;-58
2023/06/15 10:30:52;;;;;;;7.87;4.90;;;22.80;34.50;;;;;;5020482;28;20454;-58
2023/06/15 10:33:18;;;;;;;8.37;4.50;;;23.00;35.30;;;;;;5020092;28;20419;-56
2023/06/15 10:36:21;;;;;;;5.60;4.60;;;23.40;35.60;;;;;;5025294;28;21167;-57
2023/06/15 10:39:13;;;;;;;6.67;4.10;;;23.70;35.00;;;;;;5024203;28;20445;-56
2023/06/15 10:41:38;;;;;;;6.10;5.07;;;23.70;34.40;;;;;;5020685;28;20433;-58
2023/06/15 10:44:07;;;;;;;7.27;4.23;;;23.60;34.70;;;;;;5014897;28;20984;-57
2023/06/15 10:46:35;;;;;;;9.10;4.50;;;23.40;34.90;;;;;;5021267;28;20254;-56
2023/06/15 10:49:05;;;;;;;9.70;4.83;;;23.20;35.30;;;;;;5022193;28;20456;-57
2023/06/15 10:51:50;;;;;;;9.47;4.70;;;23.00;35.70;;;;;;5006292;28;20474;-57
2023/06/15 10:54:25;;;;;;;7.90;4.70;;;22.90;35.90;;;;;;5020882;28;20462;-57
2023/06/15 10:56:57;;;;;;;7.00;5.00;;;22.80;36.10;;;;;;5025211;28;20415;-58
2023/06/15 10:59:41;;;;;;;8.13;4.90;;;22.70;36.30;;;;;;5024599;28;20536;-58
2023/06/15 11:02:30;;;;;;;8.07;4.60;;;22.70;36.50;;;;;;5019413;28;20525;-58
2023/06/15 11:05:09;;;;;;;8.40;5.00;;;22.90;37.00;;;;;;5020827;28;20443;-60
2023/06/15 11:07:40;;;;;;;6.10;4.77;;;23.10;36.50;;;;;;5021026;28;20427;-60
2023/06/15 11:10:15;;;;;;;11.00;4.60;;;23.20;36.20;;;;;;5008241;28;20519;-57
2023/06/15 11:12:45;;;;;;;5.47;4.40;;;23.50;36.30;;;;;;5021014;28;20429;-55
2023/06/15 11:15:15;;;;;;;6.67;4.90;;;23.90;35.30;;;;;;5016623;28;20482;-57
2023/06/15 11:17:58;;;;;;;4.70;4.17;;;24.10;34.20;;;;;;5017597;28;20435;-57
2023/06/15 11:20:39;;;;;;;7.53;4.40;;;24.00;34.80;;;;;;5014387;28;20430;-57
2023/06/15 11:23:19;;;;;;;6.90;4.37;;;23.80;34.50;;;;;;5021192;28;20430;-58
2023/06/15 11:25:54;;;;;;;6.13;4.77;;;23.60;34.60;;;;;;5020587;28;20536;-59
2023/06/15 11:28:24;;;;;;;12.93;4.30;;;23.40;34.50;;;;;;5011624;28;20487;-57
2023/06/15 11:30:53;;;;;;;7.73;4.33;;;23.20;34.80;;;;;;5011047;28;20895;-58
2023/06/15 11:33:36;;;;;;;6.20;4.53;;;23.00;35.10;;;;;;5010933;28;21018;-56
2023/06/15 11:36:03;;;;;;;13.90;5.37;;;22.90;35.20;;;;;;5015793;28;20430;-58
2023/06/15 11:38:30;;;;;;;8.20;4.63;;;22.80;35.10;;;;;;5020039;28;20484;-58
2023/06/15 11:41:22;;;;;;;6.80;5.20;;;22.70;35.40;;;;;;5016729;28;20594;-57
2023/06/15 11:43:49;;;;;;;5.40;4.27;;;22.60;36.60;;;;;;5019343;28;20446;-58
2023/06/15 11:46:17;;;;;;;8.30;4.60;;;22.60;36.70;;;;;;5016465;28;21168;-57
2023/06/15 11:48:44;;;;;;;6.10;4.60;;;22.60;36.80;;;;;;5015495;28;20434;-58
2023/06/15 11:51:11;;;;;;;5.20;4.63;;;22.60;36.80;;;;;;5013842;28;20516;-57
2023/06/15 11:53:39;;;;;;;6.17;4.40;;;22.60;36.50;;;;;;5023044;28;20770;-56
2023/06/15 11:56:12;;;;;;;15.27;5.37;;;22.70;36.60;;;;;;5019523;28;20434;-57
2023/06/15 11:58:39;;;;;;;7.47;4.23;;;23.00;37.20;;;;;;5016608;28;20525;-59
2023/06/15 12:01:05;;;;;;;6.53;5.27;;;23.30;36.30;;;;;;5020591;28;21000;-58
2023/06/15 12:03:31;;;;;;;6.13;4.20;;;23.40;35.90;;;;;;5022268;28;20422;-58
2023/06/15 12:05:58;;;;;;;5.57;4.80;;;23.50;35.80;;;;;;5025610;28;20207;-58
2023/06/15 12:08:28;;;;;;;7.93;5.07;;;23.40;34.90;;;;;;5019722;28;20435;-58
2023/06/15 12:10:55;;;;;;;5.60;4.20;;;23.30;34.40;;;;;;5016927;28;20455;-58
2023/06/15 12:13:22;;;;;;;6.70;4.70;;;23.20;35.40;;;;;;5023782;28;20421;-57
2023/06/15 12:15:48;;;;;;;6.67;4.60;;;23.20;36.00;;;;;;5025334;28;20904;-57
2023/06/15 12:18:15;;;;;;;5.40;4.73;;;23.20;36.00;;;;;;5023681;28;20517;-57
2023/06/15 12:20:41;;;;;;;5.17;4.43;;;23.30;36.00;;;;;;5019277;28;20262;-57
2023/06/15 12:23:07;;;;;;;8.20;5.07;;;23.50;35.60;;;;;;5019316;28;20502;-57
2023/06/15 12:25:43;;;;;;;4.73;4.33;;;23.60;36.20;;;;;;5021954;28;20680;-58
2023/06/15 12:28:16;;;;;;;8.43;4.63;;;23.70;36.20;;;;;;5017542;28;20679;-57
2023/06/15 12:30:42;;;;;;;8.33;5.20;;;23.70;35.40;;;;;;5025764;28;20814;-57
2023/06/15 12:33:38;;;;;;;8.83;5.00;;;23.60;35.50;;;;;;5018718;28;20498;-57
2023/06/15 12:36:11;;;;;;;7.67;4.80;;;23.50;35.30;;;;;;5022027;28;20463;-56
2023/06/15 12:38:37;;;;;;;6.20;5.20;;;23.30;35.30;;;;;;5019797;28;20473;-57
2023/06/15 12:41:03;;;;;;;6.77;4.80;;;23.20;35.20;;;;;;5023718;28;20430;-57
2023/06/15 12:43:30;;;;;;;5.10;4.60;;;23.10;35.40;;;;;;5023732;28;20427;-58
2023/06/15 12:45:55;;;;;;;7.63;5.87;;;23.40;36.90;;;;;;5016191;28;20203;-57